sensor_id;sensor_type;location;lat;lon;timestamp;pressure;altitude;pressure_sealevel;temperature;humidity
16355;BME280;8287;51.644;8.494;2023-05-25T00:00:33;101285.13;;;11.17;89.32
16355;BME280;8287;51.644;8.494;2023-05-25T00:02:59;101287.38;;;11.05;88.87
16355;BME280;8287;51.644;8.494;2023-05-25T00:05:27;101289.75;;;11.07;88.94
16355;BME280;8287;51.644;8.494;2023-05-25T00:07:54;101287.69;;;11.04;88.40
16355;BME280;8287;51.644;8.494;2023-05-25T00:10:22;101286.16;;;10.98;88.96
16355;BME280;8287;51.644;8.494;2023-05-25T00:12:48;101288.44;;;11.04;89.36
16355;BME280;8287;51.644;8.494;2023-05-25T00:15:15;101285.88;;;10.99;88.92
16355;BME280;8287;51.644;8.494;2023-05-25T00:17:41;101285.06;;;10.99;87.88
16355;BME280;8287;51.644;8.494;2023-05-25T00:20:08;101284.00;;;11.00;88.42
16355;BME280;8287;51.644;8.494;2023-05-25T00:22:38;101278.69;;;11.00;88.25
16355;BME280;8287;51.644;8.494;2023-05-25T00:25:09;101288.66;;;11.08;87.06
16355;BME280;8287;51.644;8.494;2023-05-25T00:27:37;101291.41;;;11.03;87.50
16355;BME280;8287;51.644;8.494;2023-05-25T00:30:05;101297.72;;;11.07;86.75
16355;BME280;8287;51.644;8.494;2023-05-25T00:32:31;101292.97;;;11.04;86.11
16355;BME280;8287;51.644;8.494;2023-05-25T00:34:58;101284.00;;;11.00;86.08
16355;BME280;8287;51.644;8.494;2023-05-25T00:37:25;101287.28;;;10.92;85.40
16355;BME280;8287;51.644;8.494;2023-05-25T00:39:51;101292.13;;;10.85;87.47
16355;BME280;8287;51.644;8.494;2023-05-25T00:42:18;101285.31;;;10.79;87.02
16355;BME280;8287;51.644;8.494;2023-05-25T00:44:46;101292.72;;;10.77;86.18
16355;BME280;8287;51.644;8.494;2023-05-25T00:47:14;101293.06;;;10.70;87.54
16355;BME280;8287;51.644;8.494;2023-05-25T00:49:41;101295.00;;;10.65;87.82
16355;BME280;8287;51.644;8.494;2023-05-25T00:52:10;101295.25;;;10.63;87.62
16355;BME280;8287;51.644;8.494;2023-05-25T00:54:37;101288.72;;;10.56;87.69
16355;BME280;8287;51.644;8.494;2023-05-25T00:57:06;101292.44;;;10.55;88.49
16355;BME280;8287;51.644;8.494;2023-05-25T00:59:36;101296.63;;;10.61;87.35
16355;BME280;8287;51.644;8.494;2023-05-25T01:02:08;101292.94;;;10.57;88.45
16355;BME280;8287;51.644;8.494;2023-05-25T01:04:39;101291.38;;;10.56;88.51
16355;BME280;8287;51.644;8.494;2023-05-25T01:07:09;101287.66;;;10.57;89.36
16355;BME280;8287;51.644;8.494;2023-05-25T01:09:38;101292.69;;;10.58;89.60
16355;BME280;8287;51.644;8.494;2023-05-25T01:12:05;101292.38;;;10.60;89.93
16355;BME280;8287;51.644;8.494;2023-05-25T01:14:33;101294.53;;;10.58;89.74
16355;BME280;8287;51.644;8.494;2023-05-25T01:17:00;101282.91;;;10.54;89.90
16355;BME280;8287;51.644;8.494;2023-05-25T01:19:29;101286.66;;;10.53;89.58
16355;BME280;8287;51.644;8.494;2023-05-25T01:22:02;101279.75;;;10.52;89.40
16355;BME280;8287;51.644;8.494;2023-05-25T01:24:33;101283.69;;;10.54;89.37
16355;BME280;8287;51.644;8.494;2023-05-25T01:27:08;101289.78;;;10.55;89.08
16355;BME280;8287;51.644;8.494;2023-05-25T01:29:39;101292.44;;;10.55;90.09
16355;BME280;8287;51.644;8.494;2023-05-25T01:32:07;101290.81;;;10.59;90.07
16355;BME280;8287;51.644;8.494;2023-05-25T01:34:34;101295.50;;;10.67;89.29
16355;BME280;8287;51.644;8.494;2023-05-25T01:37:03;101293.63;;;10.44;90.51
16355;BME280;8287;51.644;8.494;2023-05-25T01:39:29;101298.84;;;10.49;91.17
16355;BME280;8287;51.644;8.494;2023-05-25T01:41:56;101293.00;;;10.52;91.78
16355;BME280;8287;51.644;8.494;2023-05-25T01:44:23;101300.84;;;10.62;91.68
16355;BME280;8287;51.644;8.494;2023-05-25T01:46:58;101299.13;;;10.47;91.63
16355;BME280;8287;51.644;8.494;2023-05-25T01:49:31;101295.44;;;10.48;92.50
16355;BME280;8287;51.644;8.494;2023-05-25T01:52:07;101287.91;;;10.55;93.28
16355;BME280;8287;51.644;8.494;2023-05-25T01:54:43;101296.03;;;10.69;93.19
16355;BME280;8287;51.644;8.494;2023-05-25T01:57:13;101284.03;;;10.71;92.59
16355;BME280;8287;51.644;8.494;2023-05-25T01:59:41;101279.19;;;10.78;92.90
16355;BME280;8287;51.644;8.494;2023-05-25T02:02:08;101282.94;;;10.77;92.11
16355;BME280;8287;51.644;8.494;2023-05-25T02:04:35;101282.44;;;10.75;91.89
16355;BME280;8287;51.644;8.494;2023-05-25T02:07:02;101278.69;;;10.76;92.05
16355;BME280;8287;51.644;8.494;2023-05-25T02:09:30;101275.03;;;10.72;91.62
16355;BME280;8287;51.644;8.494;2023-05-25T02:11:57;101279.97;;;10.55;91.84
16355;BME280;8287;51.644;8.494;2023-05-25T02:14:24;101277.03;;;10.57;91.94
16355;BME280;8287;51.644;8.494;2023-05-25T02:16:51;101284.00;;;10.53;91.83
16355;BME280;8287;51.644;8.494;2023-05-25T02:19:17;101279.75;;;10.52;92.90
16355;BME280;8287;51.644;8.494;2023-05-25T02:21:44;101286.81;;;10.61;92.53
16355;BME280;8287;51.644;8.494;2023-05-25T02:24:11;101281.00;;;10.59;92.18
16355;BME280;8287;51.644;8.494;2023-05-25T02:26:39;101285.28;;;10.55;91.26
16355;BME280;8287;51.644;8.494;2023-05-25T02:29:05;101284.44;;;10.60;91.28
16355;BME280;8287;51.644;8.494;2023-05-25T02:31:32;101281.28;;;10.58;90.52
16355;BME280;8287;51.644;8.494;2023-05-25T02:33:58;101282.19;;;10.20;91.55
16355;BME280;8287;51.644;8.494;2023-05-25T02:36:26;101275.75;;;10.26;92.37
16355;BME280;8287;51.644;8.494;2023-05-25T02:38:57;101276.72;;;10.06;91.93
16355;BME280;8287;51.644;8.494;2023-05-25T02:41:25;101274.47;;;9.85;92.78
16355;BME280;8287;51.644;8.494;2023-05-25T02:43:53;101272.59;;;9.85;93.67
16355;BME280;8287;51.644;8.494;2023-05-25T02:46:20;101277.78;;;10.05;93.32
16355;BME280;8287;51.644;8.494;2023-05-25T02:48:47;101269.81;;;10.05;92.13
16355;BME280;8287;51.644;8.494;2023-05-25T02:51:14;101274.03;;;10.11;91.78
16355;BME280;8287;51.644;8.494;2023-05-25T02:53:40;101271.19;;;10.03;91.13
16355;BME280;8287;51.644;8.494;2023-05-25T02:56:07;101286.56;;;9.96;90.37
16355;BME280;8287;51.644;8.494;2023-05-25T02:58:34;101296.59;;;9.99;91.47
16355;BME280;8287;51.644;8.494;2023-05-25T03:01:02;101313.22;;;9.71;90.28
16355;BME280;8287;51.644;8.494;2023-05-25T03:03:30;101304.34;;;9.47;91.54
16355;BME280;8287;51.644;8.494;2023-05-25T03:05:56;101305.81;;;9.68;92.08
16355;BME280;8287;51.644;8.494;2023-05-25T03:08:23;101310.81;;;9.69;90.74
16355;BME280;8287;51.644;8.494;2023-05-25T03:10:50;101313.44;;;9.74;91.02
16355;BME280;8287;51.644;8.494;2023-05-25T03:13:16;101301.53;;;9.77;90.69
16355;BME280;8287;51.644;8.494;2023-05-25T03:15:43;101299.41;;;9.79;90.03
16355;BME280;8287;51.644;8.494;2023-05-25T03:18:11;101318.19;;;9.77;89.63
16355;BME280;8287;51.644;8.494;2023-05-25T03:20:37;101313.16;;;9.76;88.70
16355;BME280;8287;51.644;8.494;2023-05-25T03:23:05;101317.91;;;9.79;88.21
16355;BME280;8287;51.644;8.494;2023-05-25T03:25:32;101323.53;;;9.73;88.46
16355;BME280;8287;51.644;8.494;2023-05-25T03:27:58;101321.97;;;9.67;88.72
16355;BME280;8287;51.644;8.494;2023-05-25T03:30:25;101329.66;;;9.68;89.47
16355;BME280;8287;51.644;8.494;2023-05-25T03:32:52;101328.03;;;9.67;89.17
16355;BME280;8287;51.644;8.494;2023-05-25T03:35:19;101323.31;;;9.59;88.80
16355;BME280;8287;51.644;8.494;2023-05-25T03:37:46;101324.91;;;9.60;89.71
16355;BME280;8287;51.644;8.494;2023-05-25T03:40:13;101339.19;;;9.59;90.21
16355;BME280;8287;51.644;8.494;2023-05-25T03:42:39;101343.47;;;9.50;90.29
16355;BME280;8287;51.644;8.494;2023-05-25T03:45:07;101335.78;;;9.54;89.99
16355;BME280;8287;51.644;8.494;2023-05-25T03:47:34;101333.94;;;9.54;89.28
16355;BME280;8287;51.644;8.494;2023-05-25T03:50:01;101327.56;;;9.60;88.88
16355;BME280;8287;51.644;8.494;2023-05-25T03:52:29;101333.69;;;9.51;89.65
16355;BME280;8287;51.644;8.494;2023-05-25T03:54:55;101337.91;;;9.52;90.27
16355;BME280;8287;51.644;8.494;2023-05-25T03:57:22;101342.13;;;9.58;90.47
16355;BME280;8287;51.644;8.494;2023-05-25T03:59:48;101337.91;;;9.52;90.45
16355;BME280;8287;51.644;8.494;2023-05-25T04:02:15;101334.47;;;9.51;89.78
16355;BME280;8287;51.644;8.494;2023-05-25T04:04:41;101331.81;;;9.51;89.54
16355;BME280;8287;51.644;8.494;2023-05-25T04:07:09;101331.34;;;9.44;90.16
16355;BME280;8287;51.644;8.494;2023-05-25T04:09:37;101337.66;;;9.48;89.57
16355;BME280;8287;51.644;8.494;2023-05-25T04:12:04;101348.81;;;9.45;89.98
16355;BME280;8287;51.644;8.494;2023-05-25T04:14:30;101346.41;;;9.44;89.62
16355;BME280;8287;51.644;8.494;2023-05-25T04:16:57;101346.13;;;9.50;89.17
16355;BME280;8287;51.644;8.494;2023-05-25T04:19:24;101343.25;;;9.42;89.82
16355;BME280;8287;51.644;8.494;2023-05-25T04:21:50;101348.81;;;9.45;91.39
16355;BME280;8287;51.644;8.494;2023-05-25T04:24:17;101345.09;;;9.41;91.99
16355;BME280;8287;51.644;8.494;2023-05-25T04:26:45;101353.56;;;9.43;91.38
16355;BME280;8287;51.644;8.494;2023-05-25T04:29:11;101361.72;;;9.47;91.52
16355;BME280;8287;51.644;8.494;2023-05-25T04:31:38;101356.19;;;9.48;92.01
16355;BME280;8287;51.644;8.494;2023-05-25T04:34:05;101360.91;;;9.56;92.11
16355;BME280;8287;51.644;8.494;2023-05-25T04:36:33;101367.22;;;9.65;91.29
16355;BME280;8287;51.644;8.494;2023-05-25T04:39:03;101358.16;;;9.76;90.53
16355;BME280;8287;51.644;8.494;2023-05-25T04:41:30;101359.72;;;9.82;90.21
16355;BME280;8287;51.644;8.494;2023-05-25T04:43:59;101368.41;;;9.87;90.12
16355;BME280;8287;51.644;8.494;2023-05-25T04:46:27;101371.03;;;9.92;90.15
16355;BME280;8287;51.644;8.494;2023-05-25T04:48:57;101363.84;;;9.98;89.84
16355;BME280;8287;51.644;8.494;2023-05-25T04:51:23;101366.50;;;10.03;89.44
16355;BME280;8287;51.644;8.494;2023-05-25T04:53:50;101372.06;;;10.06;90.55
16355;BME280;8287;51.644;8.494;2023-05-25T04:56:16;101369.91;;;10.08;90.70
16355;BME280;8287;51.644;8.494;2023-05-25T04:58:43;101380.19;;;10.15;90.52
16355;BME280;8287;51.644;8.494;2023-05-25T05:01:11;101381.75;;;10.16;90.81
16355;BME280;8287;51.644;8.494;2023-05-25T05:03:37;101387.00;;;10.26;91.21
16355;BME280;8287;51.644;8.494;2023-05-25T05:06:04;101392.25;;;10.31;90.99
16355;BME280;8287;51.644;8.494;2023-05-25T05:08:31;101395.16;;;10.34;91.23
16355;BME280;8287;51.644;8.494;2023-05-25T05:10:58;101398.56;;;10.40;91.62
16355;BME280;8287;51.644;8.494;2023-05-25T05:13:24;101392.94;;;10.46;91.60
16355;BME280;8287;51.644;8.494;2023-05-25T05:15:51;101396.34;;;10.52;91.02
16355;BME280;8287;51.644;8.494;2023-05-25T05:18:19;101403.19;;;10.58;91.51
16355;BME280;8287;51.644;8.494;2023-05-25T05:20:46;101407.38;;;10.64;91.30
16355;BME280;8287;51.644;8.494;2023-05-25T05:23:12;101404.13;;;10.72;90.96
16355;BME280;8287;51.644;8.494;2023-05-25T05:25:39;101405.72;;;10.73;92.26
16355;BME280;8287;51.644;8.494;2023-05-25T05:28:05;101413.81;;;10.86;91.94
16355;BME280;8287;51.644;8.494;2023-05-25T05:30:32;101408.69;;;10.95;91.48
16355;BME280;8287;51.644;8.494;2023-05-25T05:32:59;101410.78;;;10.98;92.03
16355;BME280;8287;51.644;8.494;2023-05-25T05:35:27;101413.22;;;10.89;92.78
16355;BME280;8287;51.644;8.494;2023-05-25T05:37:53;101417.44;;;10.95;93.58
16355;BME280;8287;51.644;8.494;2023-05-25T05:40:21;101419.94;;;11.10;92.98
16355;BME280;8287;51.644;8.494;2023-05-25T05:42:47;101423.78;;;11.23;92.43
16355;BME280;8287;51.644;8.494;2023-05-25T05:45:14;101421.81;;;11.33;91.80
16355;BME280;8287;51.644;8.494;2023-05-25T05:47:41;101423.56;;;11.43;91.72
16355;BME280;8287;51.644;8.494;2023-05-25T05:50:08;101433.56;;;11.51;91.79
16355;BME280;8287;51.644;8.494;2023-05-25T05:52:36;101431.44;;;11.53;91.82
16355;BME280;8287;51.644;8.494;2023-05-25T05:55:03;101435.06;;;11.62;91.82
16355;BME280;8287;51.644;8.494;2023-05-25T05:57:30;101435.06;;;11.62;92.00
16355;BME280;8287;51.644;8.494;2023-05-25T05:59:57;101451.41;;;11.69;91.67
16355;BME280;8287;51.644;8.494;2023-05-25T06:02:23;101442.81;;;11.77;91.66
16355;BME280;8287;51.644;8.494;2023-05-25T06:04:50;101445.16;;;11.83;92.04
16355;BME280;8287;51.644;8.494;2023-05-25T06:07:16;101444.81;;;11.90;90.92
16355;BME280;8287;51.644;8.494;2023-05-25T06:09:44;101440.69;;;11.97;91.71
16355;BME280;8287;51.644;8.494;2023-05-25T06:12:11;101447.72;;;12.12;92.22
16355;BME280;8287;51.644;8.494;2023-05-25T06:14:37;101448.69;;;12.16;92.17
16355;BME280;8287;51.644;8.494;2023-05-25T06:17:04;101449.53;;;11.93;93.16
16355;BME280;8287;51.644;8.494;2023-05-25T06:19:30;101449.84;;;12.10;94.09
16355;BME280;8287;51.644;8.494;2023-05-25T06:21:57;101450.13;;;12.27;92.69
16355;BME280;8287;51.644;8.494;2023-05-25T06:24:24;101455.66;;;12.30;91.76
16355;BME280;8287;51.644;8.494;2023-05-25T06:26:51;101450.00;;;12.37;91.50
16355;BME280;8287;51.644;8.494;2023-05-25T06:29:18;101461.69;;;12.54;91.76
16355;BME280;8287;51.644;8.494;2023-05-25T06:31:45;101453.66;;;12.59;91.88
16355;BME280;8287;51.644;8.494;2023-05-25T06:34:11;101452.41;;;12.70;92.07
16355;BME280;8287;51.644;8.494;2023-05-25T06:36:38;101456.84;;;12.75;91.98
16355;BME280;8287;51.644;8.494;2023-05-25T06:39:04;101460.59;;;12.74;92.52
16355;BME280;8287;51.644;8.494;2023-05-25T06:41:31;101462.50;;;12.87;92.14
16355;BME280;8287;51.644;8.494;2023-05-25T06:43:59;101467.72;;;12.92;91.67
16355;BME280;8287;51.644;8.494;2023-05-25T06:46:26;101477.66;;;13.05;91.27
16355;BME280;8287;51.644;8.494;2023-05-25T06:48:52;101475.69;;;13.10;90.94
16355;BME280;8287;51.644;8.494;2023-05-25T06:51:19;101479.88;;;13.16;91.22
16355;BME280;8287;51.644;8.494;2023-05-25T06:53:45;101479.06;;;13.16;90.85
16355;BME280;8287;51.644;8.494;2023-05-25T06:56:12;101482.91;;;13.23;90.96
16355;BME280;8287;51.644;8.494;2023-05-25T06:58:38;101489.69;;;13.02;90.07
16355;BME280;8287;51.644;8.494;2023-05-25T07:01:06;101492.06;;;12.67;91.77
16355;BME280;8287;51.644;8.494;2023-05-25T07:03:33;101496.06;;;12.83;92.02
16355;BME280;8287;51.644;8.494;2023-05-25T07:06:00;101485.03;;;12.94;92.87
16355;BME280;8287;51.644;8.494;2023-05-25T07:08:27;101487.84;;;13.16;92.10
16355;BME280;8287;51.644;8.494;2023-05-25T07:10:53;101490.91;;;13.36;91.54
16355;BME280;8287;51.644;8.494;2023-05-25T07:13:20;101483.94;;;13.40;90.27
16355;BME280;8287;51.644;8.494;2023-05-25T07:15:47;101488.19;;;13.55;88.91
16355;BME280;8287;51.644;8.494;2023-05-25T07:18:15;101495.09;;;13.69;89.24
16355;BME280;8287;51.644;8.494;2023-05-25T07:20:41;101487.00;;;13.88;88.38
16355;BME280;8287;51.644;8.494;2023-05-25T07:23:08;101483.84;;;13.99;88.08
16355;BME280;8287;51.644;8.494;2023-05-25T07:25:35;101499.31;;;13.43;88.01
16355;BME280;8287;51.644;8.494;2023-05-25T07:28:02;101490.56;;;13.70;89.34
16355;BME280;8287;51.644;8.494;2023-05-25T07:30:29;101498.47;;;13.88;88.58
16355;BME280;8287;51.644;8.494;2023-05-25T07:32:56;101491.22;;;14.02;87.19
16355;BME280;8287;51.644;8.494;2023-05-25T07:35:24;101478.78;;;14.11;87.27
16355;BME280;8287;51.644;8.494;2023-05-25T07:37:58;101484.50;;;14.18;85.94
16355;BME280;8287;51.644;8.494;2023-05-25T07:40:25;101493.09;;;14.15;86.92
16355;BME280;8287;51.644;8.494;2023-05-25T07:42:52;101489.63;;;14.28;87.82
16355;BME280;8287;51.644;8.494;2023-05-25T07:45:19;101491.81;;;14.26;85.35
16355;BME280;8287;51.644;8.494;2023-05-25T07:47:46;101502.59;;;14.21;85.89
16355;BME280;8287;51.644;8.494;2023-05-25T07:50:13;101490.66;;;14.54;86.09
16355;BME280;8287;51.644;8.494;2023-05-25T07:52:41;101494.13;;;14.77;84.84
16355;BME280;8287;51.644;8.494;2023-05-25T07:55:08;101505.44;;;14.60;83.63
16355;BME280;8287;51.644;8.494;2023-05-25T07:57:35;101499.66;;;14.80;83.92
16355;BME280;8287;51.644;8.494;2023-05-25T08:00:02;101498.41;;;14.86;81.85
16355;BME280;8287;51.644;8.494;2023-05-25T08:02:30;101499.16;;;15.00;81.29
16355;BME280;8287;51.644;8.494;2023-05-25T08:04:57;101498.22;;;15.05;79.70
16355;BME280;8287;51.644;8.494;2023-05-25T08:07:24;101511.13;;;15.11;80.41
16355;BME280;8287;51.644;8.494;2023-05-25T08:09:52;101504.22;;;15.10;80.77
16355;BME280;8287;51.644;8.494;2023-05-25T08:12:18;101505.44;;;15.04;79.24
16355;BME280;8287;51.644;8.494;2023-05-25T08:14:45;101515.75;;;15.19;80.33
16355;BME280;8287;51.644;8.494;2023-05-25T08:17:11;101507.69;;;15.33;81.03
16355;BME280;8287;51.644;8.494;2023-05-25T08:19:38;101508.03;;;15.40;79.34
16355;BME280;8287;51.644;8.494;2023-05-25T08:22:04;101518.16;;;15.29;78.04
16355;BME280;8287;51.644;8.494;2023-05-25T08:24:31;101519.63;;;15.35;78.98
16355;BME280;8287;51.644;8.494;2023-05-25T08:26:59;101512.72;;;15.34;78.36
16355;BME280;8287;51.644;8.494;2023-05-25T08:29:26;101508.22;;;15.43;78.49
16355;BME280;8287;51.644;8.494;2023-05-25T08:31:52;101510.22;;;15.38;79.32
16355;BME280;8287;51.644;8.494;2023-05-25T08:34:19;101513.56;;;15.43;77.63
16355;BME280;8287;51.644;8.494;2023-05-25T08:36:45;101514.00;;;14.71;78.32
16355;BME280;8287;51.644;8.494;2023-05-25T08:39:12;101516.28;;;15.08;79.34
16355;BME280;8287;51.644;8.494;2023-05-25T08:41:41;101524.94;;;15.05;78.63
16355;BME280;8287;51.644;8.494;2023-05-25T08:44:10;101510.56;;;15.14;79.03
16355;BME280;8287;51.644;8.494;2023-05-25T08:46:38;101516.56;;;15.28;79.48
16355;BME280;8287;51.644;8.494;2023-05-25T08:49:08;101521.44;;;15.48;79.08
16355;BME280;8287;51.644;8.494;2023-05-25T08:51:36;101519.41;;;15.54;75.95
16355;BME280;8287;51.644;8.494;2023-05-25T08:54:06;101516.41;;;15.25;74.39
16355;BME280;8287;51.644;8.494;2023-05-25T08:56:37;101525.69;;;15.49;75.73
16355;BME280;8287;51.644;8.494;2023-05-25T08:59:14;101527.47;;;15.62;74.49
16355;BME280;8287;51.644;8.494;2023-05-25T09:01:45;101531.56;;;15.60;72.65
16355;BME280;8287;51.644;8.494;2023-05-25T09:04:13;101534.56;;;15.67;73.19
16355;BME280;8287;51.644;8.494;2023-05-25T09:06:42;101529.63;;;15.08;74.89
16355;BME280;8287;51.644;8.494;2023-05-25T09:09:10;101528.97;;;15.02;75.04
16355;BME280;8287;51.644;8.494;2023-05-25T09:11:38;101528.13;;;15.37;75.38
16355;BME280;8287;51.644;8.494;2023-05-25T09:14:06;101524.06;;;15.40;75.47
16355;BME280;8287;51.644;8.494;2023-05-25T09:16:36;101539.72;;;15.11;74.04
16355;BME280;8287;51.644;8.494;2023-05-25T09:19:03;101536.34;;;14.97;75.11
16355;BME280;8287;51.644;8.494;2023-05-25T09:21:30;101535.53;;;15.40;73.15
16355;BME280;8287;51.644;8.494;2023-05-25T09:23:57;101542.66;;;15.53;72.86
16355;BME280;8287;51.644;8.494;2023-05-25T09:26:24;101530.94;;;15.63;72.51
16355;BME280;8287;51.644;8.494;2023-05-25T09:28:51;101536.00;;;14.76;74.08
16355;BME280;8287;51.644;8.494;2023-05-25T09:31:18;101547.78;;;14.26;76.52
16355;BME280;8287;51.644;8.494;2023-05-25T09:33:46;101544.00;;;14.54;77.69
16355;BME280;8287;51.644;8.494;2023-05-25T09:36:15;101543.81;;;14.73;77.93
16355;BME280;8287;51.644;8.494;2023-05-25T09:38:42;101551.69;;;15.13;75.05
16355;BME280;8287;51.644;8.494;2023-05-25T09:41:09;101543.91;;;15.25;71.76
16355;BME280;8287;51.644;8.494;2023-05-25T09:43:36;101549.31;;;15.12;73.03
16355;BME280;8287;51.644;8.494;2023-05-25T09:46:03;101547.50;;;15.21;73.42
16355;BME280;8287;51.644;8.494;2023-05-25T09:48:30;101551.38;;;15.15;74.01
16355;BME280;8287;51.644;8.494;2023-05-25T09:50:58;101555.66;;;15.46;73.97
16355;BME280;8287;51.644;8.494;2023-05-25T09:53:25;101553.78;;;14.81;73.50
16355;BME280;8287;51.644;8.494;2023-05-25T09:55:51;101555.69;;;15.02;73.95
16355;BME280;8287;51.644;8.494;2023-05-25T09:58:18;101550.59;;;15.36;72.17
16355;BME280;8287;51.644;8.494;2023-05-25T10:00:45;101562.38;;;15.66;70.68
16355;BME280;8287;51.644;8.494;2023-05-25T10:03:11;101552.50;;;15.75;69.95
16355;BME280;8287;51.644;8.494;2023-05-25T10:05:39;101555.88;;;15.89;71.17
16355;BME280;8287;51.644;8.494;2023-05-25T10:08:07;101544.84;;;15.51;69.83
16355;BME280;8287;51.644;8.494;2023-05-25T10:10:36;101547.19;;;15.22;72.33
16355;BME280;8287;51.644;8.494;2023-05-25T10:13:04;101555.84;;;15.50;73.72
16355;BME280;8287;51.644;8.494;2023-05-25T10:15:34;101561.63;;;15.43;72.80
16355;BME280;8287;51.644;8.494;2023-05-25T10:18:02;101567.88;;;15.61;72.01
16355;BME280;8287;51.644;8.494;2023-05-25T10:20:30;101563.38;;;15.78;73.75
16355;BME280;8287;51.644;8.494;2023-05-25T10:22:59;101572.56;;;15.94;73.38
16355;BME280;8287;51.644;8.494;2023-05-25T10:25:32;101568.31;;;15.93;71.61
16355;BME280;8287;51.644;8.494;2023-05-25T10:28:02;101564.41;;;16.08;70.87
16355;BME280;8287;51.644;8.494;2023-05-25T10:30:29;101571.75;;;15.85;70.19
16355;BME280;8287;51.644;8.494;2023-05-25T10:32:56;101568.38;;;15.71;73.03
16355;BME280;8287;51.644;8.494;2023-05-25T10:35:23;101575.88;;;16.00;72.05
16355;BME280;8287;51.644;8.494;2023-05-25T10:37:51;101582.06;;;15.70;72.27
16355;BME280;8287;51.644;8.494;2023-05-25T10:40:19;101575.50;;;15.76;72.81
16355;BME280;8287;51.644;8.494;2023-05-25T10:42:48;101578.59;;;15.69;71.25
16355;BME280;8287;51.644;8.494;2023-05-25T10:45:15;101577.00;;;15.68;72.82
16355;BME280;8287;51.644;8.494;2023-05-25T10:47:41;101577.84;;;15.47;71.90
16355;BME280;8287;51.644;8.494;2023-05-25T10:50:20;101590.28;;;15.07;71.87
16355;BME280;8287;51.644;8.494;2023-05-25T10:52:59;101584.75;;;15.48;72.50
16355;BME280;8287;51.644;8.494;2023-05-25T10:55:26;101574.88;;;15.87;71.56
16355;BME280;8287;51.644;8.494;2023-05-25T10:58:11;101580.66;;;15.72;71.64
16355;BME280;8287;51.644;8.494;2023-05-25T11:00:38;101575.16;;;15.77;71.50
16355;BME280;8287;51.644;8.494;2023-05-25T11:03:05;101579.50;;;15.34;73.01
16355;BME280;8287;51.644;8.494;2023-05-25T11:05:36;101572.78;;;15.45;73.75
16355;BME280;8287;51.644;8.494;2023-05-25T11:08:05;101575.38;;;15.59;74.74
16355;BME280;8287;51.644;8.494;2023-05-25T11:10:49;101580.22;;;15.87;73.52
16355;BME280;8287;51.644;8.494;2023-05-25T11:13:31;101577.09;;;15.85;72.34
16355;BME280;8287;51.644;8.494;2023-05-25T11:16:16;101574.47;;;16.02;70.53
16355;BME280;8287;51.644;8.494;2023-05-25T11:18:43;101576.88;;;16.12;72.23
16355;BME280;8287;51.644;8.494;2023-05-25T11:21:12;101575.41;;;16.37;71.55
16355;BME280;8287;51.644;8.494;2023-05-25T11:23:51;101574.50;;;16.75;71.51
16355;BME280;8287;51.644;8.494;2023-05-25T11:26:22;101562.81;;;17.05;69.71
16355;BME280;8287;51.644;8.494;2023-05-25T11:28:52;101559.03;;;17.14;69.32
16355;BME280;8287;51.644;8.494;2023-05-25T11:31:20;101559.19;;;17.18;68.60
16355;BME280;8287;51.644;8.494;2023-05-25T11:33:48;101563.75;;;17.17;67.44
16355;BME280;8287;51.644;8.494;2023-05-25T11:36:16;101561.84;;;17.26;68.08
16355;BME280;8287;51.644;8.494;2023-05-25T11:38:44;101559.81;;;17.32;66.05
16355;BME280;8287;51.644;8.494;2023-05-25T11:41:15;101543.13;;;17.18;67.64
16355;BME280;8287;51.644;8.494;2023-05-25T11:43:44;101554.19;;;16.74;68.13
16355;BME280;8287;51.644;8.494;2023-05-25T11:46:13;101548.78;;;17.16;69.26
16355;BME280;8287;51.644;8.494;2023-05-25T11:48:44;101551.50;;;16.99;67.01
16355;BME280;8287;51.644;8.494;2023-05-25T11:51:11;101548.38;;;16.89;67.55
16355;BME280;8287;51.644;8.494;2023-05-25T11:53:41;101553.22;;;16.70;67.86
16355;BME280;8287;51.644;8.494;2023-05-25T11:56:09;101543.75;;;17.06;68.52
16355;BME280;8287;51.644;8.494;2023-05-25T11:58:37;101540.25;;;17.31;68.42
16355;BME280;8287;51.644;8.494;2023-05-25T12:01:16;101544.63;;;17.53;64.90
16355;BME280;8287;51.644;8.494;2023-05-25T12:03:43;101541.78;;;17.58;66.33
16355;BME280;8287;51.644;8.494;2023-05-25T12:06:22;101540.78;;;17.71;64.17
16355;BME280;8287;51.644;8.494;2023-05-25T12:08:49;101536.75;;;17.56;67.08
16355;BME280;8287;51.644;8.494;2023-05-25T12:11:15;101539.13;;;17.58;66.73
16355;BME280;8287;51.644;8.494;2023-05-25T12:13:42;101535.69;;;17.40;65.35
16355;BME280;8287;51.644;8.494;2023-05-25T12:16:09;101538.00;;;17.50;67.72
16355;BME280;8287;51.644;8.494;2023-05-25T12:18:37;101536.50;;;17.78;67.35
16355;BME280;8287;51.644;8.494;2023-05-25T12:21:04;101536.00;;;17.22;65.60
16355;BME280;8287;51.644;8.494;2023-05-25T12:23:32;101546.94;;;16.58;68.19
16355;BME280;8287;51.644;8.494;2023-05-25T12:26:10;101532.88;;;17.20;67.61
16355;BME280;8287;51.644;8.494;2023-05-25T12:28:38;101534.13;;;17.39;67.14
16355;BME280;8287;51.644;8.494;2023-05-25T12:31:20;101537.63;;;17.69;65.02
16355;BME280;8287;51.644;8.494;2023-05-25T12:34:02;101535.88;;;18.10;65.27
16355;BME280;8287;51.644;8.494;2023-05-25T12:36:38;101529.69;;;17.81;65.04
16355;BME280;8287;51.644;8.494;2023-05-25T12:39:06;101524.16;;;17.48;64.63
16355;BME280;8287;51.644;8.494;2023-05-25T12:41:47;101521.66;;;17.81;66.83
16355;BME280;8287;51.644;8.494;2023-05-25T12:44:22;101523.06;;;18.16;67.69
16355;BME280;8287;51.644;8.494;2023-05-25T12:46:50;101526.47;;;18.25;66.87
16355;BME280;8287;51.644;8.494;2023-05-25T12:49:23;101527.38;;;18.58;66.31
16355;BME280;8287;51.644;8.494;2023-05-25T12:51:50;101518.75;;;18.85;66.39
16355;BME280;8287;51.644;8.494;2023-05-25T12:54:32;101510.22;;;19.03;65.17
16355;BME280;8287;51.644;8.494;2023-05-25T12:56:59;101510.25;;;18.83;62.95
16355;BME280;8287;51.644;8.494;2023-05-25T12:59:26;101509.13;;;19.16;62.38
16355;BME280;8287;51.644;8.494;2023-05-25T13:01:53;101516.63;;;18.58;62.00
16355;BME280;8287;51.644;8.494;2023-05-25T13:04:20;101523.13;;;18.57;64.65
16355;BME280;8287;51.644;8.494;2023-05-25T13:06:49;101519.63;;;18.36;62.75